createdAt,value
2022-11-20T00:01:24.404Z,11.13
2022-11-20T00:03:53.222Z,6.82
2022-11-20T00:06:21.583Z,13.80
2022-11-20T00:08:49.138Z,8.80
2022-11-20T00:11:18.871Z,8.10
2022-11-20T00:13:47.357Z,10.68
2022-11-20T00:16:16.657Z,14.05
2022-11-20T00:18:43.907Z,9.85
2022-11-20T00:21:20.430Z,12.07
2022-11-20T00:23:50.467Z,12.55
2022-11-20T00:26:19.523Z,9.05
2022-11-20T00:28:54.649Z,9.73
2022-11-20T00:31:22.178Z,6.90
2022-11-20T00:33:49.525Z,6.35
2022-11-20T00:36:19.285Z,10.23
2022-11-20T00:38:46.837Z,6.50
2022-11-20T00:41:16.372Z,7.15
2022-11-20T00:43:44.353Z,10.32
2022-11-20T00:46:13.813Z,9.50
2022-11-20T00:48:40.909Z,7.75
2022-11-20T00:51:07.938Z,10.90
2022-11-20T00:53:35.505Z,10.18
2022-11-20T00:56:08.635Z,9.32
2022-11-20T00:58:37.632Z,10.02
2022-11-20T01:01:07.507Z,9.13
2022-11-20T01:03:40.593Z,10.25
2022-11-20T01:06:11.579Z,5.73
2022-11-20T01:08:38.958Z,11.43
2022-11-20T01:11:15.782Z,7.13
2022-11-20T01:13:44.504Z,10.50
2022-11-20T01:16:23.614Z,11.13
2022-11-20T01:18:55.965Z,9.00
2022-11-20T01:21:24.861Z,6.50
2022-11-20T01:23:52.644Z,9.80
2022-11-20T01:26:25.800Z,9.02
2022-11-20T01:28:53.115Z,7.80
2022-11-20T01:31:21.853Z,12.23
2022-11-20T01:33:50.760Z,11.98
2022-11-20T01:36:19.751Z,7.70
2022-11-20T01:38:47.127Z,10.10
2022-11-20T01:41:36.219Z,6.75
2022-11-20T01:44:04.543Z,7.95
2022-11-20T01:46:35.286Z,9.57
2022-11-20T01:49:07.426Z,10.07
2022-11-20T01:51:49.854Z,7.93
2022-11-20T01:54:20.922Z,10.27
2022-11-20T01:56:49.568Z,12.20
2022-11-20T01:59:20.759Z,8.40
2022-11-20T02:01:48.475Z,9.15
2022-11-20T02:04:16.884Z,11.27
2022-11-20T02:06:47.535Z,14.50
2022-11-20T02:09:15.942Z,10.30
2022-11-20T02:11:43.283Z,10.60
2022-11-20T02:14:10.927Z,10.55
2022-11-20T02:16:46.977Z,12.73
2022-11-20T02:19:27.460Z,14.15
2022-11-20T02:22:00.508Z,11.48
2022-11-20T02:24:27.608Z,10.55
2022-11-20T02:27:15.210Z,10.13
2022-11-20T02:29:48.004Z,10.70
2022-11-20T02:32:23.179Z,11.65
2022-11-20T02:34:50.294Z,8.32
2022-11-20T02:37:18.151Z,9.52
2022-11-20T02:39:47.352Z,10.07
2022-11-20T02:42:14.711Z,10.07
2022-11-20T02:44:42.063Z,11.23
2022-11-20T02:47:09.780Z,9.70
2022-11-20T02:49:36.800Z,6.30
2022-11-20T02:52:03.928Z,6.82
2022-11-20T02:54:30.996Z,8.40
2022-11-20T02:56:58.157Z,9.52
2022-11-20T02:59:25.141Z,10.15
2022-11-20T03:01:52.269Z,12.23
2022-11-20T03:04:19.385Z,7.43
2022-11-20T03:06:46.370Z,9.32
2022-11-20T03:09:13.877Z,7.97
2022-11-20T03:11:41.131Z,8.15
2022-11-20T03:14:08.172Z,8.30
2022-11-20T03:16:35.151Z,8.70
2022-11-20T03:19:02.365Z,8.45
2022-11-20T03:21:29.419Z,10.32
2022-11-20T03:23:56.844Z,7.75
2022-11-20T03:26:28.534Z,8.73
2022-11-20T03:29:00.992Z,7.88
2022-11-20T03:31:33.889Z,9.48
2022-11-20T03:34:01.482Z,8.97
2022-11-20T03:36:29.213Z,11.43
2022-11-20T03:38:57.425Z,9.73
2022-11-20T03:41:30.590Z,10.73
2022-11-20T03:43:57.676Z,8.18
2022-11-20T03:46:25.617Z,7.40
2022-11-20T03:48:52.891Z,8.40
2022-11-20T03:51:22.689Z,9.73
2022-11-20T03:53:52.220Z,9.73
2022-11-20T03:56:22.429Z,6.93
2022-11-20T03:58:49.847Z,6.30
2022-11-20T04:01:20.250Z,14.20
2022-11-20T04:03:47.870Z,9.30
2022-11-20T04:06:24.084Z,7.13
2022-11-20T04:08:54.014Z,8.65
2022-11-20T04:11:30.452Z,7.60
2022-11-20T04:14:00.601Z,8.88
2022-11-20T04:16:31.180Z,8.68
2022-11-20T04:19:00.878Z,10.63
2022-11-20T04:21:28.637Z,11.27
2022-11-20T04:23:56.596Z,11.70
2022-11-20T04:26:25.998Z,10.18
2022-11-20T04:28:53.445Z,11.02
2022-11-20T04:31:25.751Z,10.95
2022-11-20T04:33:53.085Z,11.18
2022-11-20T04:36:26.178Z,6.07
2022-11-20T04:38:58.527Z,7.35
2022-11-20T04:41:29.104Z,14.10
2022-11-20T04:44:00.870Z,10.15
2022-11-20T04:46:29.070Z,10.27
2022-11-20T04:48:56.811Z,11.00
2022-11-20T04:51:24.647Z,12.35
2022-11-20T04:53:51.962Z,11.02
2022-11-20T04:56:19.038Z,9.02
2022-11-20T04:58:46.330Z,8.95
2022-11-20T05:01:15.951Z,7.25
2022-11-20T05:03:44.331Z,10.30
2022-11-20T05:06:14.256Z,12.98
2022-11-20T05:08:41.954Z,7.18
2022-11-20T05:11:14.986Z,7.78
2022-11-20T05:13:42.481Z,12.38
2022-11-20T05:16:29.982Z,13.68
2022-11-20T05:18:57.283Z,11.70
2022-11-20T05:21:24.364Z,10.55
2022-11-20T05:23:51.445Z,9.57
2022-11-20T05:26:22.552Z,11.27
2022-11-20T05:28:50.889Z,9.05
2022-11-20T05:31:27.244Z,8.07
2022-11-20T05:33:56.740Z,7.60
2022-11-20T05:36:24.140Z,8.48
2022-11-20T05:38:51.637Z,12.13
2022-11-20T05:41:21.905Z,8.70
2022-11-20T05:43:50.308Z,8.13
2022-11-20T05:46:23.550Z,10.90
2022-11-20T05:48:55.149Z,7.50
2022-11-20T05:51:22.485Z,5.53
2022-11-20T05:53:49.563Z,14.63
2022-11-20T05:56:22.173Z,8.57
2022-11-20T05:58:50.377Z,6.07
2022-11-20T06:01:24.422Z,9.05
2022-11-20T06:03:52.292Z,8.05
2022-11-20T06:06:20.400Z,8.63
2022-11-20T06:08:48.337Z,7.15
2022-11-20T06:11:16.479Z,6.88
2022-11-20T06:13:44.100Z,6.70
2022-11-20T06:16:13.349Z,7.80
2022-11-20T06:18:40.641Z,11.35
2022-11-20T06:21:13.283Z,7.53
2022-11-20T06:23:40.895Z,6.38
2022-11-20T06:26:13.074Z,7.50
2022-11-20T06:28:40.564Z,5.55
2022-11-20T06:31:08.928Z,6.60
2022-11-20T06:33:36.058Z,5.15
2022-11-20T06:36:10.195Z,10.23
2022-11-20T06:38:37.903Z,6.32
2022-11-20T06:41:06.406Z,3.45
2022-11-20T06:43:33.874Z,7.15
2022-11-20T06:46:01.298Z,5.38
2022-11-20T06:48:30.454Z,7.03
2022-11-20T06:50:59.877Z,5.40
2022-11-20T06:53:26.958Z,5.15
2022-11-20T06:55:56.701Z,4.32
2022-11-20T06:58:23.726Z,5.85
2022-11-20T07:00:50.815Z,4.85
2022-11-20T07:03:17.889Z,7.90
2022-11-20T07:05:46.345Z,6.30
2022-11-20T07:08:13.609Z,6.97
2022-11-20T07:10:40.683Z,4.07
2022-11-20T07:13:08.273Z,3.75
2022-11-20T07:15:36.325Z,8.63
2022-11-20T07:18:03.409Z,5.40
2022-11-20T07:20:30.596Z,9.02
2022-11-20T07:22:58.834Z,4.07
2022-11-20T07:25:27.226Z,3.55
2022-11-20T07:27:54.655Z,3.72
2022-11-20T07:30:22.087Z,5.00
2022-11-20T07:32:52.872Z,6.10
2022-11-20T07:35:20.531Z,4.95
2022-11-20T07:37:48.470Z,6.70
2022-11-20T07:40:16.849Z,4.22
2022-11-20T07:42:55.058Z,4.82
2022-11-20T07:45:24.433Z,5.38
2022-11-20T07:47:52.079Z,3.67
2022-11-20T07:50:20.610Z,4.38
2022-11-20T07:52:47.676Z,4.25
2022-11-20T07:55:15.056Z,5.03
2022-11-20T07:57:42.513Z,7.15
2022-11-20T08:00:11.974Z,4.40
2022-11-20T08:02:40.546Z,8.00
2022-11-20T08:05:09.367Z,3.92
2022-11-20T08:07:40.670Z,3.38
2022-11-20T08:10:09.596Z,5.13
2022-11-20T08:12:55.242Z,2.72
2022-11-20T08:15:22.417Z,3.17
2022-11-20T08:18:15.382Z,5.13
2022-11-20T08:20:37.175Z,2.55
2022-11-20T08:23:07.059Z,4.43
2022-11-20T08:25:36.146Z,4.38
2022-11-20T08:28:15.874Z,2.72
2022-11-20T08:30:47.624Z,8.82
2022-11-20T08:33:14.771Z,5.00
2022-11-20T08:35:42.914Z,2.90
2022-11-20T08:38:10.832Z,4.65
2022-11-20T08:40:38.102Z,3.65
2022-11-20T08:43:05.599Z,6.75
2022-11-20T08:45:34.992Z,6.57
2022-11-20T08:48:03.803Z,10.68
2022-11-20T08:50:33.812Z,12.52
2022-11-20T08:53:07.609Z,10.85
2022-11-20T08:55:36.812Z,5.22
2022-11-20T08:58:07.465Z,2.90
2022-11-20T09:00:35.618Z,4.03
2022-11-20T09:03:02.937Z,6.18
2022-11-20T09:05:30.460Z,4.47
2022-11-20T09:07:58.680Z,5.80
2022-11-20T09:10:26.332Z,2.85
2022-11-20T09:12:54.170Z,4.97
2022-11-20T09:15:21.205Z,3.97
2022-11-20T09:18:00.531Z,4.45
2022-11-20T09:20:29.837Z,4.32
2022-11-20T09:22:58.008Z,5.40
2022-11-20T09:25:25.377Z,5.07
2022-11-20T09:27:59.472Z,4.43
2022-11-20T09:30:27.716Z,3.70
2022-11-20T09:32:55.032Z,4.70
2022-11-20T09:35:22.047Z,7.10
2022-11-20T09:37:49.095Z,2.60
2022-11-20T09:40:30.724Z,3.05
2022-11-20T09:43:36.344Z,2.72
2022-11-20T09:46:12.764Z,3.75
2022-11-20T09:48:54.930Z,5.20
2022-11-20T09:51:30.963Z,3.40
2022-11-20T09:54:10.676Z,5.18
2022-11-20T09:56:44.703Z,2.47
2022-11-20T09:59:30.751Z,3.67
2022-11-20T10:01:59.918Z,4.50
2022-11-20T10:04:27.066Z,8.00
2022-11-20T10:07:30.338Z,3.15
2022-11-20T10:09:57.781Z,6.35
2022-11-20T10:12:38.721Z,5.60
2022-11-20T10:15:29.822Z,8.90
2022-11-20T10:18:05.703Z,7.22
2022-11-20T10:21:17.694Z,5.78
2022-11-20T10:24:04.347Z,8.10
2022-11-20T10:26:37.138Z,9.50
2022-11-20T10:29:17.086Z,5.93
2022-11-20T10:31:48.622Z,6.53
2022-11-20T10:34:27.562Z,10.52
2022-11-20T10:37:00.958Z,7.72
2022-11-20T10:39:40.339Z,5.95
2022-11-20T10:42:14.716Z,8.48
2022-11-20T10:45:05.748Z,5.57
2022-11-20T10:47:34.207Z,3.42
2022-11-20T10:50:11.132Z,3.80
2022-11-20T10:52:56.588Z,6.95
2022-11-20T10:55:45.503Z,4.70
2022-11-20T10:58:30.193Z,4.65
2022-11-20T11:01:15.024Z,5.88
2022-11-20T11:03:44.672Z,6.18
2022-11-20T11:06:25.305Z,5.53
2022-11-20T11:08:56.605Z,5.38
2022-11-20T11:11:33.641Z,5.78
2022-11-20T11:14:15.910Z,8.15
2022-11-20T11:16:57.056Z,6.18
2022-11-20T11:19:24.921Z,5.95
2022-11-20T11:21:56.053Z,5.50
2022-11-20T11:24:41.616Z,8.32
2022-11-20T11:27:17.702Z,6.05
2022-11-20T11:29:46.136Z,9.88
2022-11-20T11:32:21.995Z,11.40
2022-11-20T11:35:07.640Z,6.03
2022-11-20T11:37:37.738Z,7.63
2022-11-20T11:43:40.719Z,5.05
2022-11-20T11:46:30.138Z,6.03
2022-11-20T11:49:06.514Z,10.40
2022-11-20T11:52:15.255Z,15.63
2022-11-20T11:55:07.168Z,15.75
2022-11-20T11:58:10.511Z,12.70
2022-11-20T12:00:41.072Z,12.93
2022-11-20T12:03:29.727Z,19.63
2022-11-20T12:06:03.113Z,15.02
2022-11-20T12:08:39.325Z,14.23
2022-11-20T12:11:13.637Z,9.10
2022-11-20T12:13:49.727Z,10.52
2022-11-20T12:16:20.663Z,11.70
2022-11-20T12:18:52.797Z,8.95
2022-11-20T12:21:29.526Z,5.85
2022-11-20T12:24:21.189Z,5.15
2022-11-20T12:26:57.704Z,5.25
2022-11-20T12:29:39.401Z,7.07
2022-11-20T12:32:23.671Z,5.20
2022-11-20T12:35:06.128Z,5.75
2022-11-20T12:37:48.782Z,6.75
2022-11-20T12:40:40.760Z,5.20
2022-11-20T12:43:52.346Z,7.88
2022-11-20T12:46:47.070Z,15.63
2022-11-20T12:49:48.175Z,9.85
2022-11-20T12:52:18.180Z,14.07
2022-11-20T12:55:03.771Z,13.32
2022-11-20T12:57:55.155Z,14.48
2022-11-20T13:00:24.445Z,9.90
2022-11-20T13:03:22.069Z,7.03
2022-11-20T13:06:18.880Z,4.35
2022-11-20T13:08:56.017Z,16.02
2022-11-20T13:11:44.306Z,3.65
2022-11-20T13:14:42.282Z,5.80
2022-11-20T13:17:43.061Z,4.78
2022-11-20T13:20:19.302Z,5.47
2022-11-20T13:22:53.037Z,6.18
2022-11-20T13:27:51.526Z,11.65
2022-11-20T13:30:20.164Z,10.38
2022-11-20T13:33:29.228Z,11.43
2022-11-20T13:36:06.068Z,10.48
2022-11-20T13:38:48.552Z,12.18
2022-11-20T13:41:32.600Z,12.52
2022-11-20T13:46:39.877Z,13.82
2022-11-20T13:49:44.793Z,14.23
2022-11-20T13:52:49.518Z,13.60
2022-11-20T13:55:54.825Z,11.60
2022-11-20T13:58:49.529Z,8.45
2022-11-20T14:01:28.004Z,7.50
2022-11-20T14:04:10.624Z,8.93
2022-11-20T14:06:47.044Z,8.05
2022-11-20T14:09:26.468Z,10.68
2022-11-20T14:11:53.871Z,14.95
2022-11-20T14:14:23.500Z,14.18
2022-11-20T14:16:51.642Z,14.90
2022-11-20T14:19:28.741Z,11.57
2022-11-20T14:22:09.053Z,8.32
2022-11-20T14:24:36.296Z,13.48
2022-11-20T14:27:03.691Z,12.57
2022-11-20T14:29:40.037Z,13.25
2022-11-20T14:32:07.085Z,13.80
2022-11-20T14:34:39.651Z,13.88
2022-11-20T14:37:16.575Z,14.13
2022-11-20T14:39:50.576Z,12.75
2022-11-20T14:42:21.235Z,10.43
2022-11-20T14:44:49.797Z,14.68
2022-11-20T14:47:24.711Z,10.32
2022-11-20T14:49:53.672Z,10.25
2022-11-20T14:52:23.901Z,13.15
2022-11-20T14:54:56.231Z,7.60
2022-11-20T14:57:32.239Z,11.98
2022-11-20T15:00:14.592Z,10.05
2022-11-20T15:02:46.863Z,9.98
2022-11-20T15:05:14.922Z,13.27
2022-11-20T15:07:47.532Z,11.95
2022-11-20T15:10:25.040Z,12.95
2022-11-20T15:12:54.523Z,9.75
2022-11-20T15:15:30.654Z,13.23
2022-11-20T15:17:58.135Z,12.73
2022-11-20T15:20:29.272Z,11.27
2022-11-20T15:22:56.237Z,11.07
2022-11-20T15:25:25.799Z,13.00
2022-11-20T15:28:01.679Z,11.55
2022-11-20T15:30:28.829Z,11.25
2022-11-20T15:32:55.931Z,16.50
2022-11-20T15:35:22.974Z,8.48
2022-11-20T15:37:50.376Z,10.40
2022-11-20T15:40:17.594Z,9.75
2022-11-20T15:43:08.219Z,9.57
2022-11-20T15:45:42.943Z,11.68
2022-11-20T15:48:18.062Z,12.68
2022-11-20T15:51:07.205Z,8.13
2022-11-20T15:53:34.353Z,11.02
2022-11-20T15:56:01.395Z,13.35
2022-11-20T15:58:28.429Z,8.80
2022-11-20T16:00:55.665Z,10.77
2022-11-20T16:03:23.214Z,12.18
2022-11-20T16:05:50.490Z,10.00
2022-11-20T16:08:17.689Z,9.00
2022-11-20T16:10:44.855Z,11.55
2022-11-20T16:13:35.677Z,10.77
2022-11-20T16:16:07.577Z,7.05
2022-11-20T16:18:35.014Z,12.57
2022-11-20T16:21:02.632Z,14.18
2022-11-20T16:23:29.992Z,19.33
2022-11-20T16:25:57.020Z,14.35
2022-11-20T16:28:24.185Z,17.50
2022-11-20T16:30:51.616Z,9.88
2022-11-20T16:33:19.358Z,10.90
2022-11-20T16:35:46.447Z,12.15
2022-11-20T16:38:13.699Z,14.07
2022-11-20T16:40:41.367Z,13.60
2022-11-20T16:43:12.302Z,18.75
2022-11-20T16:45:42.865Z,19.67
2022-11-20T16:48:13.638Z,13.25
2022-11-20T16:51:01.004Z,12.02
2022-11-20T16:53:28.333Z,12.63
2022-11-20T16:55:55.747Z,9.57
2022-11-20T16:58:22.906Z,9.27
2022-11-20T17:00:51.971Z,7.15
2022-11-20T17:03:19.679Z,6.55
2022-11-20T17:05:46.763Z,9.45
2022-11-20T17:08:14.373Z,10.20
2022-11-20T17:10:42.896Z,8.38
2022-11-20T17:13:10.157Z,11.07
2022-11-20T17:15:37.295Z,8.07
2022-11-20T17:18:04.421Z,5.43
2022-11-20T17:20:33.406Z,3.30
2022-11-20T17:23:00.666Z,12.43
2022-11-20T17:25:27.953Z,12.68
2022-11-20T17:27:55.319Z,12.70
2022-11-20T17:30:22.355Z,10.40
2022-11-20T17:32:49.462Z,6.25
2022-11-20T17:35:16.573Z,6.53
2022-11-20T17:37:43.881Z,5.95
2022-11-20T17:40:11.128Z,9.57
2022-11-20T17:42:38.189Z,11.00
2022-11-20T17:45:05.766Z,6.75
2022-11-20T17:47:35.754Z,6.35
2022-11-20T17:50:03.281Z,5.55
2022-11-20T17:52:30.878Z,6.68
2022-11-20T17:54:58.238Z,4.93
2022-11-20T17:57:43.590Z,4.28
2022-11-20T18:00:14.272Z,3.95
2022-11-20T18:02:41.823Z,3.97
2022-11-20T18:05:09.390Z,3.78
2022-11-20T18:07:41.456Z,12.23
2022-11-20T18:10:09.895Z,12.35
2022-11-20T18:12:37.354Z,16.00
2022-11-20T18:15:04.829Z,12.63
2022-11-20T18:17:32.215Z,19.52
2022-11-20T18:20:28.734Z,12.75
2022-11-20T18:22:49.774Z,10.43
2022-11-20T18:25:17.708Z,11.68
2022-11-20T18:27:45.660Z,14.20
2022-11-20T18:30:13.573Z,22.25
2022-11-20T18:32:40.810Z,8.88
2022-11-20T18:35:08.204Z,13.35
2022-11-20T18:37:35.226Z,7.53
2022-11-20T18:40:02.272Z,6.88
2022-11-20T18:42:47.685Z,6.93
2022-11-20T18:45:15.413Z,6.82
2022-11-20T18:47:42.420Z,5.68
2022-11-20T18:50:10.004Z,6.07
2022-11-20T18:52:42.365Z,5.20
2022-11-20T18:55:10.594Z,5.30
2022-11-20T18:57:37.695Z,6.30
2022-11-20T19:00:09.262Z,3.55
2022-11-20T19:02:41.489Z,6.75
2022-11-20T19:05:13.908Z,4.40
2022-11-20T19:07:41.560Z,3.90
2022-11-20T19:10:09.029Z,5.70
2022-11-20T19:12:36.135Z,5.70
2022-11-20T19:15:03.727Z,6.70
2022-11-20T19:17:30.822Z,4.32
2022-11-20T19:19:57.973Z,3.80
2022-11-20T19:22:25.144Z,3.40
2022-11-20T19:24:52.218Z,7.75
2022-11-20T19:27:19.268Z,5.57
2022-11-20T19:29:46.710Z,7.43
2022-11-20T19:32:13.768Z,6.07
2022-11-20T19:34:40.805Z,6.03
2022-11-20T19:37:08.033Z,7.53
2022-11-20T19:39:36.747Z,7.68
2022-11-20T19:42:03.807Z,7.93
2022-11-20T19:44:32.532Z,5.63
2022-11-20T19:46:59.474Z,5.13
2022-11-20T19:49:27.243Z,6.68
2022-11-20T19:51:54.467Z,5.82
2022-11-20T19:54:21.536Z,6.00
2022-11-20T19:56:51.360Z,5.10
2022-11-20T19:59:18.475Z,4.82
2022-11-20T20:01:45.672Z,5.25
2022-11-20T20:04:12.802Z,4.88
2022-11-20T20:06:40.588Z,5.53
2022-11-20T20:09:12.661Z,5.32
2022-11-20T20:11:40.762Z,2.95
2022-11-20T20:14:10.941Z,4.32
2022-11-20T20:16:38.003Z,3.25
2022-11-20T20:19:06.163Z,6.78
2022-11-20T20:21:35.445Z,6.15
2022-11-20T20:24:03.193Z,4.50
2022-11-20T20:26:32.151Z,4.65
2022-11-20T20:29:01.505Z,4.82
2022-11-20T20:31:31.559Z,8.05
2022-11-20T20:33:58.811Z,7.95
2022-11-20T20:36:26.677Z,7.50
2022-11-20T20:39:00.106Z,8.55
2022-11-20T20:41:27.305Z,9.85
2022-11-20T20:44:13.702Z,7.35
2022-11-20T20:46:41.481Z,15.50
2022-11-20T20:49:08.909Z,17.73
2022-11-20T20:51:36.845Z,14.02
2022-11-20T20:54:05.031Z,12.90
2022-11-20T20:56:32.158Z,15.35
2022-11-20T20:58:59.228Z,11.77
2022-11-20T21:01:29.070Z,28.67
2022-11-20T21:03:56.942Z,16.80
2022-11-20T21:06:24.424Z,12.88
2022-11-20T21:08:51.443Z,25.80
2022-11-20T21:11:20.647Z,17.02
2022-11-20T21:13:48.727Z,23.27
2022-11-20T21:16:17.634Z,19.95
2022-11-20T21:18:44.976Z,25.27
2022-11-20T21:21:32.408Z,20.77
2022-11-20T21:23:59.760Z,20.00
2022-11-20T21:26:27.452Z,17.55
2022-11-20T21:28:54.915Z,15.63
2022-11-20T21:31:25.477Z,13.43
2022-11-20T21:33:55.117Z,19.02
2022-11-20T21:36:24.937Z,9.73
2022-11-20T21:38:54.125Z,7.25
2022-11-20T21:41:21.620Z,5.70
2022-11-20T21:44:03.822Z,8.07
2022-11-20T21:46:39.716Z,9.85
2022-11-20T21:49:07.307Z,5.85
2022-11-20T21:51:34.479Z,4.25
2022-11-20T21:54:01.590Z,14.52
2022-11-20T21:56:28.847Z,9.70
2022-11-20T21:58:56.474Z,9.25
2022-11-20T22:01:29.094Z,7.80
2022-11-20T22:04:01.880Z,7.30
2022-11-20T22:06:35.173Z,5.60
2022-11-20T22:09:03.246Z,7.03
2022-11-20T22:11:30.865Z,9.18
2022-11-20T22:14:16.688Z,6.32
2022-11-20T22:16:43.882Z,5.13
2022-11-20T22:19:11.076Z,7.82
2022-11-20T22:21:40.333Z,7.05
2022-11-20T22:24:07.826Z,6.82
2022-11-20T22:26:40.515Z,6.60
2022-11-20T22:29:08.708Z,5.63
2022-11-20T22:31:35.700Z,5.22
2022-11-20T22:34:03.092Z,7.38
2022-11-20T22:36:31.425Z,10.63
2022-11-20T22:38:59.141Z,9.43
2022-11-20T22:41:28.993Z,5.82
2022-11-20T22:44:04.961Z,6.40
2022-11-20T22:46:34.176Z,4.43
2022-11-20T22:49:03.294Z,8.68
2022-11-20T22:51:33.118Z,9.57
2022-11-20T22:54:00.767Z,4.30
2022-11-20T22:56:27.834Z,5.88
2022-11-20T22:58:55.470Z,7.13
2022-11-20T23:01:25.022Z,5.38
2022-11-20T23:03:57.350Z,4.88
2022-11-20T23:06:24.479Z,4.88
2022-11-20T23:08:52.379Z,6.85
2022-11-20T23:11:22.341Z,7.35
2022-11-20T23:13:58.816Z,4.40
2022-11-20T23:16:28.448Z,4.90
2022-11-20T23:18:57.669Z,6.60
2022-11-20T23:21:25.453Z,4.88
2022-11-20T23:23:55.218Z,5.05
2022-11-20T23:26:24.293Z,5.40
2022-11-20T23:28:54.054Z,4.97
2022-11-20T23:31:21.307Z,6.63
2022-11-20T23:33:48.317Z,6.07
2022-11-20T23:36:15.886Z,7.32
2022-11-20T23:38:43.364Z,4.13
2022-11-20T23:41:10.544Z,5.72
2022-11-20T23:43:37.542Z,6.03
2022-11-20T23:46:05.472Z,7.57
2022-11-20T23:48:35.535Z,10.25
2022-11-20T23:51:03.665Z,7.25
2022-11-20T23:53:30.853Z,9.68
2022-11-20T23:56:00.228Z,6.57
2022-11-20T23:58:34.832Z,6.60
